x

East Scotia Slope (44137) Wave Buoy

4:00pm - Sat 21st Jan 2017 All times are EST. -5 hours from GMT.

  • Sig Wave height 8.2ft
  • Peak Period 12s
  • Wind
    16mph, 22mph gusts
  • Sea Temp 56°f
  • Air Temp 39°f
  • Sea Pressure 1008.5mb
  • East Scotia Slope
  • East Scotia Slope

More Historic Weather Station data

Upgrade to MSW Pro to gain access to the past 30 days of data for over 8000 Wavebouys and Weather Stations around the globe.

Join Pro

Comparision Forecast

View Surf forecast
   
Sat 01/21 4:00pm 8ft 12s 16 22 mph 1008.5mb 56f 39f
3:00pm 8ft 13s 18 25 mph 1008.5mb 56f 38f
2:00pm 8ft 12s 16 22 mph 1008.7mb 56f 38f
1:00pm 7.5ft 12s 16 22 mph 1008.9mb 56f 38f
12:00pm 7ft 11s 13 18 mph 1009.2mb 56f 37f
11:00am 7ft 11s 18 22 mph 1010.2mb 56f 37f
10:00am 7ft 12s 16 22 mph 1011.3mb 56f 37f
9:00am 8ft 12s 18 25 mph 1011.7mb 56f 37f
8:00am 8ft 10s 18 22 mph 1011.5mb 56f 38f
7:00am 8.5ft 13s 20 22 mph 1011.3mb 56f 39f
6:00am 9ft 13s 18 25 mph 1011mb 56f 39f
5:00am 8ft 12s 18 22 mph 1010.6mb 56f 39f
4:00am 8ft 11s 18 22 mph 1010.7mb 56f 39f
3:00am 8.5ft 10s 13 22 mph 1010.6mb 56f 40f
2:00am 8ft 12s 18 22 mph 1010.5mb 56f 40f
1:00am  -   -  18
mph
1010.5mb - 40f
12:00am 8ft 11s 20 25 mph 1010.1mb 57f 40f
Fri 01/20 11:00pm 8.5ft 10s 20 25 mph 1010.6mb 57f 40f
10:00pm 8ft 10s 20 25 mph 1010.9mb 57f 41f
9:00pm 8.5ft 11s 18 25 mph 1010.8mb 57f 41f
8:00pm 9ft 10s 22 29 mph 1010.3mb 57f 42f
7:00pm 9ft 12s 22 27 mph 1010.4mb 57f 42f
6:00pm 9ft 12s 25 34 mph 1010.5mb 57f 41f
5:00pm 9ft 12s 27 31 mph 1009.7mb 57f 42f
4:00pm 9.5ft 10s 27 31 mph 1009.2mb 57f 42f
3:00pm 9ft 10s 25 29 mph 1009mb 58f 42f
2:00pm 9.5ft 11s 22 27 mph 1008.9mb 58f 42f
1:00pm 10ft 11s 25 29 mph 1008.5mb 58f 42f
12:00pm 9.5ft 11s 22 29 mph 1008.6mb 57f 41f
11:00am 9ft 10s 25 31 mph 1009.3mb 56f 41f
10:00am  -   -  22
mph
1009.8mb 56f 42f
9:00am 10ft 10s 20 25 mph 1009.4mb 56f 43f
8:00am 8.5ft 10s 20 27 mph 1009.1mb 55f 42f
7:00am 9ft 10s 22 29 mph 1008.8mb 55f 42f
6:00am 9ft 10s 22 27 mph 1008.6mb 56f 43f
5:00am 8ft 10s 22 29 mph 1008.7mb 56f 43f
4:00am 7.5ft 9s 22 29 mph 1008.6mb 56f 44f
3:00am 7.5ft 10s 22 27 mph 1008.7mb 56f 44f
2:00am 7.5ft 10s 22 27 mph 1009mb 56f 44f
1:00am 7.5ft 8s 22 27 mph 1008.9mb 56f 46f
12:00am  -   -  20
mph
- - -
Thu 01/19 11:00pm 7.5ft 10s 18 22 mph 1008.5mb 56f 47f
10:00pm 7ft 8s 18 20 mph 1008.9mb 56f 47f
9:00pm 7ft 8s 18 20 mph 1009.2mb 56f 47f
8:00pm 7.5ft 8s 18 22 mph 1009.3mb 56f 47f
7:00pm 7.5ft 7s 18 25 mph 1009.7mb 56f 48f
6:00pm 7ft 7s 18 22 mph 1009.9mb 56f 48f
5:00pm 7.5ft 9s 18 22 mph 1009.5mb 56f 49f
3:00pm 7ft 7s 18 22 mph 1009.4mb 56f 48f
2:00pm 8ft 7s 20 22 mph 1009.3mb 57f 48f
1:00pm 8ft 8s 22 27 mph 1009.6mb 57f 48f
12:00pm 8ft 8s 22 25 mph 1010.3mb 57f 48f
11:00am 8ft 7s 22 27 mph 1011mb 57f 47f
10:00am 8ft 8s 22 25 mph 1012.2mb 57f 47f
9:00am 8ft 7s 18 22 mph 1012.5mb 57f 48f
8:00am 8ft 7s 18 22 mph 1012.8mb 57f 48f
7:00am 8ft 7s 22 27 mph 1012.1mb 57f 48f
6:00am 8ft 8s 22 27 mph 1012.1mb 57f 47f
5:00am 8ft 7s 22 27 mph 1012.2mb 57f 46f
4:00am 9ft 7s 29 34 mph 1011.9mb 57f 45f
3:00am 9ft 7s 29 34 mph 1012.2mb 56f 45f
2:00am 8.5ft 7s 27 31 mph 1012.7mb 56f 45f
1:00am 8ft 7s 25 29 mph 1012.8mb 56f 46f
12:00am  -   -  25
mph
- - 45f
Wed 01/18 11:00pm 8ft 7s 25 31 mph 1013.8mb 55f 45f
10:00pm 8ft 6s 27 36 mph 1014.1mb 55f 44f
9:00pm 7.5ft 7s 27 36 mph 1013.7mb 54f 44f
8:00pm 8ft 6s 27 34 mph 1014.7mb 56f 43f
7:00pm 7ft 7s 27 34 mph 1015.4mb 56f 43f
6:00pm  -   -  27
mph
1016mb - 42f
5:00pm 7.5ft 7s 25 29 mph 1016.2mb 56f 41f
4:00pm 7ft 6s 27 34 mph 1016.2mb 55f 42f
3:00pm 7ft 6s 25
mph
1016.1mb 55f 41f
2:00pm 6ft 7s 25 34 mph 1016mb 55f 41f
1:00pm 5.5ft 7s 22 27 mph 1016.7mb 55f 40f
12:00pm 6ft 7s 20 27 mph 1018mb 55f 39f
11:00am 5.5ft 8s 20 27 mph 1019.5mb 55f 37f
10:00am 5ft 8s 20 29 mph 1020.6mb 54f 36f
9:00am 5ft 8s 22 27 mph 1021.3mb 53f 35f
8:00am 5ft 7s 18 22 mph 1021.6mb 53f 34f
7:00am 5.5ft 8s 20 25 mph 1021.5mb 52f 34f
6:00am 5.5ft 7s 16 22 mph 1021.5mb 54f 34f
5:00am 6ft 8s 16 22 mph 1021.9mb 54f 33f
4:00am 5.5ft 8s 16 20 mph 1021.8mb 54f 33f
3:00am 6ft 7s 16 22 mph 1022.4mb 55f 33f
2:00am 6ft 7s 13 20 mph 1022.9mb 55f 33f
1:00am 6.5ft 6s 16 20 mph 1023.2mb 55f 33f
12:00am 6ft 6s 18 22 mph 1022.8mb 55f 33f
Tue 01/17 11:00pm 6.5ft 6s 20 25 mph 1022.8mb 55f 34f